Time;durP1;ratioP1;P1;durP2;ratioP2;P2;SDS_P1;SDS_P2;PMS_P1;PMS_P2;Temp;Humidity;BMP_temperature;BMP_pressure;BME280_temperature;BME280_humidity;BME280_pressure;Samples;Min_cycle;Max_cycle;Signal;HPM_P1;HPM_P2
2023/06/26 05:21:06;;;;;;;15.03;12.13;;;22.70;99.90;;;;;;6139760;22;1334908;-91
2023/06/26 05:23:37;;;;;;;12.80;11.53;;;22.80;99.90;;;;;;6164090;23;20245;-96
2023/06/26 05:26:09;;;;;;;13.70;10.80;;;22.80;99.90;;;;;;6151021;23;20415;-91
2023/06/26 05:28:36;;;;;;;13.00;11.80;;;22.90;99.90;;;;;;6144412;23;20396;-93
2023/06/26 05:31:04;;;;;;;11.40;10.20;;;22.90;99.90;;;;;;6129200;23;20449;-94
2023/06/26 05:33:34;;;;;;;17.73;11.50;;;22.90;99.90;;;;;;6130599;23;20413;-93
2023/06/26 05:36:05;;;;;;;13.13;10.93;;;23.00;99.90;;;;;;6128521;23;20430;-92
2023/06/26 05:38:40;;;;;;;10.50;9.40;;;23.10;99.90;;;;;;6132428;23;20377;-96
2023/06/26 05:41:06;;;;;;;21.80;11.70;;;23.10;99.90;;;;;;6127055;23;20510;-93
2023/06/26 05:43:45;;;;;;;18.70;10.67;;;23.20;99.90;;;;;;6130965;23;20406;-96
2023/06/26 05:46:12;;;;;;;17.67;11.43;;;23.30;99.90;;;;;;6129156;23;20764;-92
2023/06/26 05:48:38;;;;;;;11.63;10.43;;;23.40;99.90;;;;;;6172049;23;20198;-88
2023/06/26 05:51:04;;;;;;;10.90;9.80;;;23.40;99.90;;;;;;6176926;23;20446;-87
2023/06/26 05:53:30;;;;;;;11.20;10.20;;;23.50;99.90;;;;;;6174452;23;20543;-86
2023/06/26 05:55:56;;;;;;;10.00;8.83;;;23.60;99.90;;;;;;6147517;23;21115;-79
2023/06/26 05:58:24;;;;;;;10.20;8.07;;;23.60;99.90;;;;;;6174019;23;20390;-80
2023/06/26 06:00:50;;;;;;;10.00;9.10;;;23.70;99.90;;;;;;6174130;23;20986;-88
2023/06/26 06:03:16;;;;;;;10.60;9.50;;;23.70;99.90;;;;;;6146862;23;20442;-79
2023/06/26 06:05:42;;;;;;;11.50;10.40;;;23.80;99.90;;;;;;6145777;23;20177;-85
2023/06/26 06:08:07;;;;;;;9.67;8.67;;;23.80;99.90;;;;;;6172189;23;20395;-84
2023/06/26 06:10:33;;;;;;;8.63;7.73;;;23.90;99.90;;;;;;6174357;23;20209;-81
2023/06/26 06:12:59;;;;;;;13.40;8.60;;;23.90;99.90;;;;;;6145640;23;20257;-81
2023/06/26 06:15:24;;;;;;;8.83;8.03;;;24.00;99.90;;;;;;6166942;23;20157;-84
2023/06/26 06:17:50;;;;;;;9.77;8.87;;;24.10;99.90;;;;;;6155865;23;20161;-85
2023/06/26 06:20:22;;;;;;;10.20;8.40;;;24.10;99.90;;;;;;6148203;23;20168;-77
2023/06/26 06:22:48;;;;;;;15.13;8.43;;;24.10;99.90;;;;;;6175223;23;20235;-86
2023/06/26 06:25:14;;;;;;;8.13;7.33;;;24.20;99.90;;;;;;6171564;23;21027;-88
2023/06/26 06:27:41;;;;;;;9.90;8.50;;;24.30;99.90;;;;;;6168248;23;20442;-77
2023/06/26 06:30:07;;;;;;;8.60;7.80;;;24.40;99.90;;;;;;6143483;23;20387;-85
2023/06/26 06:32:33;;;;;;;10.37;8.10;;;24.40;99.90;;;;;;6142665;23;21052;-78
2023/06/26 06:34:59;;;;;;;20.00;10.30;;;24.50;99.90;;;;;;6143809;23;20438;-83
2023/06/26 06:37:26;;;;;;;10.10;7.23;;;24.60;99.90;;;;;;6143922;23;20459;-79
2023/06/26 06:39:52;;;;;;;15.23;8.83;;;24.70;99.90;;;;;;6159817;23;20179;-83
2023/06/26 06:42:17;;;;;;;16.40;9.03;;;24.80;99.90;;;;;;6172435;23;20447;-85
2023/06/26 06:44:43;;;;;;;19.73;9.07;;;24.90;99.90;;;;;;6169355;23;20766;-84
2023/06/26 06:47:09;;;;;;;12.50;9.50;;;24.90;99.90;;;;;;6170929;23;20247;-83
2023/06/26 06:49:35;;;;;;;11.20;8.27;;;25.00;99.90;;;;;;6145549;23;20527;-77
2023/06/26 06:52:00;;;;;;;9.37;7.30;;;25.10;99.90;;;;;;6174642;23;20195;-83
2023/06/26 06:54:28;;;;;;;13.23;8.53;;;25.20;99.90;;;;;;6146166;23;20162;-76
2023/06/26 06:56:57;;;;;;;8.67;7.80;;;25.30;99.90;;;;;;6144836;23;20478;-85
2023/06/26 06:59:24;;;;;;;12.43;8.80;;;;;;;;;;6146193;23;20873;-82
2023/06/26 07:01:50;;;;;;;8.10;7.30;;;25.40;99.90;;;;;;6172974;23;20388;-81
2023/06/26 07:04:15;;;;;;;8.50;7.60;;;25.40;99.90;;;;;;6171335;23;20392;-80
2023/06/26 07:06:41;;;;;;;15.63;13.43;;;25.40;99.90;;;;;;6172369;23;20396;-83
2023/06/26 07:09:06;;;;;;;10.17;8.40;;;25.40;99.90;;;;;;6170938;23;20821;-79
2023/06/26 07:11:32;;;;;;;8.77;7.90;;;25.40;99.90;;;;;;6170107;23;20790;-79
2023/06/26 07:13:58;;;;;;;8.40;7.53;;;25.50;99.90;;;;;;6167882;23;20215;-80
2023/06/26 07:16:24;;;;;;;8.50;7.70;;;25.50;99.90;;;;;;6166706;23;20182;-79
2023/06/26 07:18:50;;;;;;;9.57;7.70;;;25.60;99.90;;;;;;6167686;23;20159;-79
2023/06/26 07:21:16;;;;;;;9.20;7.63;;;25.70;99.90;;;;;;6167891;23;20356;-81
2023/06/26 07:23:42;;;;;;;13.03;8.17;;;25.70;99.90;;;;;;6140760;23;21066;-80
2023/06/26 07:26:10;;;;;;;8.73;7.83;;;25.80;99.90;;;;;;6168205;23;20181;-80
2023/06/26 07:28:36;;;;;;;9.30;6.90;;;25.80;99.90;;;;;;6168879;23;20743;-82
2023/06/26 07:31:01;;;;;;;13.37;8.10;;;25.90;99.90;;;;;;6142371;23;20515;-78
2023/06/26 07:33:27;;;;;;;8.43;7.43;;;26.00;99.90;;;;;;6168440;23;20178;-80
2023/06/26 07:35:52;;;;;;;8.83;7.53;;;26.00;99.90;;;;;;6141937;23;20181;-82
2023/06/26 07:38:18;;;;;;;8.70;7.80;;;26.10;99.90;;;;;;6169535;23;20228;-78
2023/06/26 07:40:44;;;;;;;9.47;7.70;;;26.20;99.90;;;;;;6168520;23;20166;-79
2023/06/26 07:43:09;;;;;;;10.23;7.73;;;26.30;99.90;;;;;;6145626;23;20162;-78
2023/06/26 07:45:35;;;;;;;10.13;8.53;;;26.40;99.90;;;;;;6170735;23;20174;-80
2023/06/26 07:48:01;;;;;;;9.17;7.20;;;26.40;99.90;;;;;;6174631;23;20248;-78
2023/06/26 07:50:26;;;;;;;9.57;7.20;;;26.50;99.90;;;;;;6172406;23;20225;-77
2023/06/26 07:52:53;;;;;;;10.40;8.57;;;26.60;99.90;;;;;;6172663;23;20222;-79
2023/06/26 07:55:19;;;;;;;9.00;8.20;;;26.60;99.90;;;;;;6147458;23;20164;-80
2023/06/26 07:57:45;;;;;;;12.60;11.23;;;26.70;99.90;;;;;;6175971;23;20411;-80
2023/06/26 08:00:11;;;;;;;8.57;5.77;;;26.80;99.90;;;;;;6173162;23;20151;-79
2023/06/26 08:02:37;;;;;;;6.60;6.00;;;26.80;99.90;;;;;;6149042;23;20412;-76
2023/06/26 08:05:03;;;;;;;6.60;5.90;;;26.90;99.90;;;;;;6174634;23;20372;-77
2023/06/26 08:07:28;;;;;;;6.67;5.43;;;26.90;99.90;;;;;;6174327;23;20210;-82
2023/06/26 08:09:54;;;;;;;7.60;6.13;;;27.00;99.90;;;;;;6148231;23;20190;-78
2023/06/26 08:12:20;;;;;;;8.13;6.53;;;27.00;99.90;;;;;;6149271;23;20230;-82
2023/06/26 08:14:46;;;;;;;9.77;6.93;;;27.10;99.90;;;;;;6173870;23;20237;-77
2023/06/26 08:17:11;;;;;;;6.20;5.60;;;27.20;99.90;;;;;;6174987;23;20928;-78
2023/06/26 08:19:40;;;;;;;6.73;6.10;;;27.20;99.90;;;;;;6174003;23;20155;-79
2023/06/26 08:22:05;;;;;;;6.70;6.00;;;27.30;99.90;;;;;;6174920;23;20172;-86
2023/06/26 08:24:31;;;;;;;6.10;5.60;;;27.30;99.90;;;;;;6172796;23;20381;-83
2023/06/26 08:26:58;;;;;;;8.37;6.43;;;27.40;99.90;;;;;;6172699;23;20173;-85
2023/06/26 08:29:24;;;;;;;7.97;6.40;;;27.50;99.90;;;;;;6145411;23;20213;-84
2023/06/26 08:31:50;;;;;;;6.70;6.10;;;27.50;99.90;;;;;;6172253;23;20955;-78
2023/06/26 08:34:15;;;;;;;6.80;6.10;;;27.60;99.90;;;;;;6170619;23;20149;-81
2023/06/26 08:36:41;;;;;;;6.63;6.03;;;27.60;99.90;;;;;;6170403;23;20175;-81
2023/06/26 08:39:08;;;;;;;7.10;6.40;;;27.70;99.90;;;;;;6170077;23;20164;-86
2023/06/26 08:41:34;;;;;;;11.00;6.00;;;27.80;99.90;;;;;;6144614;23;20208;-84
2023/06/26 08:44:00;;;;;;;7.93;7.20;;;27.80;99.90;;;;;;6141259;23;20413;-81
2023/06/26 08:46:27;;;;;;;7.70;7.00;;;27.90;99.90;;;;;;6140549;23;20180;-83
2023/06/26 08:49:01;;;;;;;8.33;6.60;;;28.00;99.90;;;;;;6140641;23;20472;-79
2023/06/26 08:51:29;;;;;;;7.70;7.00;;;28.00;99.90;;;;;;6168121;23;20434;-78
2023/06/26 08:53:59;;;;;;;8.67;7.90;;;28.00;99.90;;;;;;6167779;23;20387;-79
2023/06/26 08:56:35;;;;;;;7.83;7.13;;;28.10;99.90;;;;;;6168447;23;20406;-78
2023/06/26 08:59:06;;;;;;;8.40;7.60;;;28.20;99.90;;;;;;6138902;23;20917;-79
2023/06/26 09:01:32;;;;;;;8.87;8.00;;;28.20;99.90;;;;;;6170074;23;20621;-79
2023/06/26 09:03:58;;;;;;;7.70;7.00;;;28.30;99.90;;;;;;6170038;23;20470;-79
2023/06/26 09:06:24;;;;;;;8.23;7.30;;;28.30;99.90;;;;;;6143183;23;20433;-79
2023/06/26 09:08:50;;;;;;;7.97;7.17;;;28.30;99.90;;;;;;6143872;23;20720;-79
2023/06/26 09:11:15;;;;;;;8.37;7.13;;;28.40;99.90;;;;;;6177220;23;20275;-79
2023/06/26 09:13:42;;;;;;;7.40;6.70;;;28.50;99.90;;;;;;6176029;23;20157;-79
2023/06/26 09:16:09;;;;;;;7.43;6.80;;;28.60;99.90;;;;;;6175803;23;20197;-79
2023/06/26 09:18:35;;;;;;;8.10;6.83;;;28.60;99.90;;;;;;6172700;23;20388;-79
2023/06/26 09:21:06;;;;;;;7.10;6.40;;;28.60;99.90;;;;;;6146942;23;20398;-79
2023/06/26 09:23:33;;;;;;;8.00;6.90;;;28.70;99.90;;;;;;6173968;23;20863;-79
2023/06/26 09:25:59;;;;;;;7.17;6.57;;;28.70;99.90;;;;;;6173498;23;20401;-78
2023/06/26 09:28:25;;;;;;;10.83;6.67;;;28.70;99.90;;;;;;6144654;23;20871;-79
2023/06/26 09:30:52;;;;;;;8.73;6.90;;;28.70;99.90;;;;;;6172150;23;20191;-79
2023/06/26 09:33:19;;;;;;;6.90;6.40;;;28.70;99.90;;;;;;6143883;23;20417;-79
2023/06/26 09:35:46;;;;;;;8.80;7.90;;;28.60;99.90;;;;;;6172055;23;20684;-79
2023/06/26 09:38:12;;;;;;;8.10;7.30;;;28.60;99.90;;;;;;6168865;23;20399;-79
2023/06/26 09:40:39;;;;;;;7.40;6.73;;;28.60;99.90;;;;;;6171914;23;20391;-78
2023/06/26 09:43:05;;;;;;;70.67;49.40;;;28.70;99.90;;;;;;6169944;23;20399;-79
2023/06/26 09:45:38;;;;;;;9.73;8.40;;;28.80;99.90;;;;;;6169635;23;20467;-80
2023/06/26 09:48:05;;;;;;;7.43;6.73;;;28.80;99.90;;;;;;6146925;23;20785;-83
2023/06/26 09:50:34;;;;;;;8.30;7.47;;;28.80;99.90;;;;;;6172902;23;20428;-80
2023/06/26 09:53:10;;;;;;;8.40;7.60;;;28.90;99.90;;;;;;6147044;23;20397;-80
2023/06/26 09:55:37;;;;;;;8.00;7.23;;;29.00;99.90;;;;;;6174850;23;20842;-80
2023/06/26 09:58:03;;;;;;;8.87;8.13;;;29.00;99.90;;;;;;6146018;23;20396;-80
2023/06/26 10:00:31;;;;;;;13.03;7.97;;;29.10;99.90;;;;;;6168793;23;20892;-81
2023/06/26 10:02:56;;;;;;;9.67;8.63;;;29.10;99.90;;;;;;6168084;23;20473;-80
2023/06/26 10:05:22;;;;;;;7.80;7.10;;;29.20;99.90;;;;;;6140990;23;20467;-81
2023/06/26 10:07:48;;;;;;;9.33;8.20;;;29.20;99.80;;;;;;6167336;23;20476;-81
2023/06/26 10:10:16;;;;;;;9.87;8.87;;;29.20;99.10;;;;;;6139101;23;20420;-80
2023/06/26 10:12:45;;;;;;;12.87;11.63;;;29.20;99.20;;;;;;6136270;23;20413;-80
2023/06/26 10:15:13;;;;;;;8.20;7.40;;;29.30;99.30;;;;;;6161163;23;20382;-81
2023/06/26 10:17:42;;;;;;;11.90;8.60;;;29.30;99.70;;;;;;6161247;23;20977;-81
2023/06/26 10:20:12;;;;;;;8.67;7.87;;;29.30;99.90;;;;;;6136664;23;20745;-80
2023/06/26 10:22:45;;;;;;;8.77;7.87;;;29.40;98.90;;;;;;6162587;23;20808;-79
2023/06/26 10:25:13;;;;;;;9.73;8.83;;;29.30;98.00;;;;;;6139576;23;20377;-81
2023/06/26 10:27:43;;;;;;;8.40;7.60;;;29.40;98.30;;;;;;6168898;23;20484;-80
2023/06/26 10:30:17;;;;;;;8.37;7.50;;;29.30;99.70;;;;;;6147064;23;20375;-81
2023/06/26 10:32:45;;;;;;;9.10;8.30;;;29.40;97.30;;;;;;6172096;23;20395;-80
2023/06/26 10:35:11;;;;;;;8.90;8.10;;;29.40;97.20;;;;;;6143489;23;20419;-81
2023/06/26 10:37:41;;;;;;;9.37;8.20;;;29.50;96.80;;;;;;6171186;23;20453;-81
2023/06/26 10:40:07;;;;;;;9.50;8.13;;;29.40;99.50;;;;;;6145179;23;20733;-80
2023/06/26 10:42:39;;;;;;;8.90;8.10;;;29.20;98.20;;;;;;6143840;23;20800;-80
2023/06/26 10:45:13;;;;;;;8.53;7.73;;;29.20;98.30;;;;;;6171630;23;20461;-81
2023/06/26 10:47:41;;;;;;;8.67;7.87;;;29.30;97.90;;;;;;6171544;23;20926;-80
2023/06/26 10:50:28;;;;;;;8.73;7.93;;;29.30;97.50;;;;;;6172947;23;20393;-81
2023/06/26 10:53:36;;;;;;;9.10;8.20;;;29.40;96.80;;;;;;6148420;23;20789;-80
2023/06/26 10:56:05;;;;;;;9.20;8.30;;;29.40;96.30;;;;;;6166973;23;20554;-80
2023/06/26 10:58:34;;;;;;;8.90;8.07;;;29.50;96.10;;;;;;6142073;23;20567;-80
2023/06/26 11:01:15;;;;;;;8.97;8.07;;;29.40;96.40;;;;;;6168301;23;20395;-81
2023/06/26 11:04:04;;;;;;;10.43;9.30;;;29.40;97.10;;;;;;6142942;23;20601;-81
2023/06/26 11:06:31;;;;;;;9.40;8.50;;;29.40;96.10;;;;;;6171453;23;20448;-80
2023/06/26 11:09:17;;;;;;;9.43;8.43;;;29.40;95.90;;;;;;6168823;23;20992;-79
2023/06/26 11:11:59;;;;;;;9.90;9.03;;;29.40;95.90;;;;;;6145502;23;20461;-80
2023/06/26 11:14:27;;;;;;;10.03;9.13;;;29.40;96.10;;;;;;6171480;23;20388;-79
2023/06/26 11:16:56;;;;;;;9.10;7.73;;;29.40;95.90;;;;;;6168909;23;20415;-82
2023/06/26 11:19:22;;;;;;;8.17;7.37;;;29.30;95.00;;;;;;6168590;23;20447;-81
2023/06/26 11:21:49;;;;;;;9.10;8.30;;;29.30;95.40;;;;;;6171387;23;21100;-80
2023/06/26 11:24:16;;;;;;;8.30;7.50;;;29.30;95.10;;;;;;6170027;23;20160;-79
2023/06/26 11:26:44;;;;;;;8.33;7.53;;;29.40;93.90;;;;;;6170624;23;20465;-79
2023/06/26 11:29:11;;;;;;;8.97;8.17;;;29.40;93.40;;;;;;6166876;23;21125;-82
2023/06/26 11:31:38;;;;;;;8.23;7.43;;;29.40;94.10;;;;;;6169863;23;20522;-80
2023/06/26 11:34:11;;;;;;;7.37;6.63;;;29.50;94.20;;;;;;6141627;23;20398;-83
2023/06/26 11:36:37;;;;;;;9.03;7.20;;;29.40;96.30;;;;;;6147768;23;20405;-80
2023/06/26 11:39:07;;;;;;;10.23;8.03;;;29.40;96.60;;;;;;6171007;23;21127;-82
2023/06/26 11:41:37;;;;;;;10.70;6.83;;;29.40;96.90;;;;;;6169873;23;20473;-79
2023/06/26 11:44:05;;;;;;;8.43;7.63;;;29.50;96.20;;;;;;6171409;23;20702;-82
2023/06/26 11:46:32;;;;;;;7.87;7.13;;;29.50;94.40;;;;;;6169656;23;20395;-81
2023/06/26 11:48:58;;;;;;;7.50;6.80;;;29.60;94.80;;;;;;6167818;23;20509;-80
2023/06/26 11:51:26;;;;;;;7.03;6.40;;;29.60;94.40;;;;;;6145940;23;20458;-80
2023/06/26 11:53:53;;;;;;;7.77;7.07;;;29.60;97.60;;;;;;6168649;23;20533;-79
2023/06/26 11:56:22;;;;;;;10.53;7.73;;;29.50;97.90;;;;;;6171937;23;21004;-80
2023/06/26 11:58:58;;;;;;;7.80;7.10;;;29.60;97.50;;;;;;6171693;23;20959;-83
2023/06/26 12:01:25;;;;;;;8.60;7.00;;;29.50;99.10;;;;;;6143779;23;20449;-80
2023/06/26 12:03:51;;;;;;;7.00;6.40;;;29.50;99.10;;;;;;6171087;23;20405;-79
2023/06/26 12:06:17;;;;;;;7.50;6.80;;;29.40;99.00;;;;;;6143894;23;20956;-78
2023/06/26 12:08:43;;;;;;;7.13;6.53;;;29.60;94.00;;;;;;6169068;23;20628;-78
2023/06/26 12:11:10;;;;;;;7.47;6.77;;;29.80;93.20;;;;;;6144045;23;20444;-79
2023/06/26 12:13:35;;;;;;;7.60;6.90;;;29.80;93.90;;;;;;6170742;23;20478;-81
2023/06/26 12:16:01;;;;;;;9.63;7.13;;;29.90;93.70;;;;;;6171374;23;20498;-78
2023/06/26 12:18:34;;;;;;;6.43;5.83;;;29.90;95.00;;;;;;6168646;23;20154;-77
2023/06/26 12:21:00;;;;;;;7.40;6.80;;;30.00;93.40;;;;;;6141340;23;20519;-79
2023/06/26 12:23:47;;;;;;;6.90;6.30;;;30.10;92.40;;;;;;6140618;23;20416;-79
2023/06/26 12:26:19;;;;;;;7.50;6.80;;;30.20;93.20;;;;;;6139156;23;20233;-78
2023/06/26 12:28:45;;;;;;;6.50;6.00;;;30.20;92.90;;;;;;6165085;23;20423;-78
2023/06/26 12:31:20;;;;;;;7.90;7.20;;;30.30;91.90;;;;;;6142154;23;20448;-81
2023/06/26 12:33:45;;;;;;;8.30;7.50;;;30.00;96.00;;;;;;6166578;23;20384;-80
2023/06/26 12:36:14;;;;;;;8.53;7.60;;;30.00;96.80;;;;;;6166288;23;20481;-80
2023/06/26 12:38:45;;;;;;;6.90;6.30;;;30.00;97.70;;;;;;6169324;23;20154;-80
2023/06/26 12:41:15;;;;;;;7.97;7.17;;;29.90;98.00;;;;;;6171015;23;20458;-84
2023/06/26 12:43:41;;;;;;;8.47;7.63;;;29.80;98.00;;;;;;6139595;23;20454;-80
2023/06/26 12:46:07;;;;;;;8.07;7.30;;;29.70;98.70;;;;;;6143888;23;20492;-80
2023/06/26 12:48:43;;;;;;;8.40;7.50;;;29.80;99.00;;;;;;6167261;23;20882;-80
2023/06/26 12:51:14;;;;;;;7.27;6.67;;;29.80;98.10;;;;;;6166747;23;20443;-81
2023/06/26 12:53:40;;;;;;;8.00;7.30;;;29.70;99.00;;;;;;6168639;23;20477;-79
2023/06/26 12:56:10;;;;;;;7.47;6.77;;;29.80;96.30;;;;;;6168471;23;20402;-80
2023/06/26 12:58:36;;;;;;;8.23;7.20;;;29.80;97.30;;;;;;6170948;23;20162;-82
2023/06/26 13:01:16;;;;;;;7.70;7.00;;;29.80;96.70;;;;;;6170248;23;20901;-79
2023/06/26 13:03:42;;;;;;;7.10;6.50;;;29.90;96.20;;;;;;6146039;23;20406;-81
2023/06/26 13:06:08;;;;;;;7.37;6.23;;;30.00;95.00;;;;;;6146787;23;20890;-81
2023/06/26 13:08:34;;;;;;;6.20;5.67;;;30.10;94.70;;;;;;6171913;23;20161;-83
2023/06/26 13:11:00;;;;;;;6.97;6.37;;;30.00;96.50;;;;;;6172287;23;20701;-82
2023/06/26 13:13:26;;;;;;;6.67;6.07;;;29.90;97.90;;;;;;6173893;23;20391;-79
2023/06/26 13:15:51;;;;;;;6.80;6.20;;;29.80;97.50;;;;;;6145644;23;20177;-82
2023/06/26 13:18:17;;;;;;;8.83;6.23;;;29.80;94.60;;;;;;6148220;23;20596;-82
2023/06/26 13:20:43;;;;;;;5.70;4.97;;;29.80;96.90;;;;;;6146475;23;20180;-80
2023/06/26 13:23:09;;;;;;;7.57;5.23;;;29.70;97.00;;;;;;6144033;23;20790;-82
2023/06/26 13:25:34;;;;;;;6.43;5.83;;;29.70;97.50;;;;;;6144355;23;20157;-77
2023/06/26 13:28:00;;;;;;;5.93;5.23;;;29.80;96.10;;;;;;6148650;23;20168;-81
2023/06/26 13:30:26;;;;;;;6.80;6.10;;;29.80;98.10;;;;;;6147501;23;20210;-80
2023/06/26 13:32:51;;;;;;;8.30;7.23;;;29.70;98.30;;;;;;6135404;23;20170;-80
2023/06/26 13:35:17;;;;;;;7.20;6.60;;;29.70;96.80;;;;;;6167903;23;20154;-80
2023/06/26 13:37:43;;;;;;;9.23;7.07;;;29.70;98.00;;;;;;6139598;23;20180;-81
2023/06/26 13:40:09;;;;;;;7.93;7.20;;;29.70;98.90;;;;;;6146281;23;21101;-79
2023/06/26 13:42:36;;;;;;;7.27;6.57;;;29.70;98.70;;;;;;6174531;23;20205;-79
2023/06/26 13:45:03;;;;;;;8.13;7.40;;;29.80;99.10;;;;;;6147545;23;20410;-79
2023/06/26 13:47:28;;;;;;;8.83;7.93;;;29.60;97.10;;;;;;6168941;23;21105;-81
2023/06/26 13:49:54;;;;;;;7.40;6.70;;;29.50;99.90;;;;;;6142009;23;20391;-81
2023/06/26 13:52:20;;;;;;;7.80;7.03;;;29.40;99.90;;;;;;6169650;23;20255;-81
2023/06/26 13:54:46;;;;;;;6.80;6.20;;;29.40;99.70;;;;;;6171275;23;20593;-80
2023/06/26 13:57:12;;;;;;;7.00;6.40;;;29.40;99.90;;;;;;6145534;23;20248;-81
2023/06/26 13:59:39;;;;;;;6.60;6.00;;;29.60;97.50;;;;;;6169925;23;20770;-79
2023/06/26 14:02:06;;;;;;;6.70;6.10;;;29.60;98.00;;;;;;6144502;23;20236;-82
2023/06/26 14:04:32;;;;;;;6.20;5.70;;;29.70;99.20;;;;;;6143900;23;20391;-80
2023/06/26 14:06:58;;;;;;;6.50;5.60;;;29.70;99.40;;;;;;6144944;23;20493;-84
2023/06/26 14:09:24;;;;;;;6.07;5.50;;;29.60;99.10;;;;;;6167456;23;20371;-83
2023/06/26 14:11:49;;;;;;;6.30;5.57;;;29.60;94.70;;;;;;6167469;23;20243;-84
2023/06/26 14:14:15;;;;;;;9.30;6.40;;;29.90;92.80;;;;;;6170363;23;20196;-84
2023/06/26 14:16:42;;;;;;;7.57;6.40;;;29.90;95.50;;;;;;6144190;23;20181;-81
2023/06/26 14:19:14;;;;;;;6.97;6.30;;;29.90;97.90;;;;;;6141028;23;20177;-81
2023/06/26 14:21:41;;;;;;;6.30;5.80;;;29.70;95.70;;;;;;6142714;23;20403;-82
2023/06/26 14:24:07;;;;;;;7.83;7.03;;;29.60;98.90;;;;;;6139900;23;20729;-79
2023/06/26 14:26:33;;;;;;;8.03;6.63;;;29.50;95.60;;;;;;6142045;23;21269;-82
2023/06/26 14:28:59;;;;;;;6.63;6.03;;;29.70;96.70;;;;;;6163811;23;20169;-82
2023/06/26 14:31:25;;;;;;;7.03;5.93;;;29.80;98.80;;;;;;6139139;23;20446;-81
2023/06/26 14:33:51;;;;;;;6.70;6.10;;;29.90;95.60;;;;;;6164382;23;20389;-81
2023/06/26 14:36:17;;;;;;;7.13;6.20;;;30.10;95.20;;;;;;6165108;23;20411;-82
2023/06/26 14:38:43;;;;;;;8.07;6.40;;;30.10;98.30;;;;;;6142667;23;20173;-82
2023/06/26 14:41:08;;;;;;;8.67;6.60;;;29.80;98.80;;;;;;6144481;23;20207;-82
2023/06/26 14:43:34;;;;;;;7.90;6.27;;;29.90;96.70;;;;;;6144049;23;20245;-84
2023/06/26 14:46:00;;;;;;;5.87;5.47;;;30.10;94.60;;;;;;6170293;23;20838;-83
2023/06/26 14:48:25;;;;;;;6.50;5.90;;;30.30;93.50;;;;;;6168704;23;20638;-83
2023/06/26 14:50:51;;;;;;;7.00;6.23;;;30.20;97.40;;;;;;6166273;23;20942;-83
2023/06/26 14:53:17;;;;;;;7.07;5.63;;;30.30;96.40;;;;;;6144389;23;20170;-82
2023/06/26 14:55:43;;;;;;;5.97;5.30;;;30.40;96.20;;;;;;6142670;23;20192;-81
2023/06/26 14:58:09;;;;;;;6.30;5.80;;;30.50;93.50;;;;;;6168183;23;20680;-81
2023/06/26 15:00:34;;;;;;;6.20;5.70;;;30.60;94.40;;;;;;6171630;23;20157;-82
2023/06/26 15:03:01;;;;;;;6.30;5.77;;;30.60;95.30;;;;;;6147457;23;20176;-82
2023/06/26 15:05:26;;;;;;;6.20;5.60;;;30.70;94.90;;;;;;6173641;23;20631;-81
2023/06/26 15:07:52;;;;;;;5.50;5.00;;;30.70;95.70;;;;;;6147867;23;20458;-81
2023/06/26 15:10:18;;;;;;;6.20;5.60;;;30.80;92.80;;;;;;6174518;23;20431;-81
2023/06/26 15:12:44;;;;;;;6.20;5.33;;;30.80;93.40;;;;;;6145886;23;20209;-81
2023/06/26 15:15:10;;;;;;;5.63;5.13;;;30.80;95.40;;;;;;6147177;23;20896;-81
2023/06/26 15:17:35;;;;;;;6.20;5.60;;;30.80;94.60;;;;;;6173231;23;20181;-81
2023/06/26 15:20:01;;;;;;;5.73;5.23;;;30.80;95.20;;;;;;6147659;23;20151;-81
2023/06/26 15:22:27;;;;;;;7.03;5.57;;;30.90;91.90;;;;;;6175062;23;20268;-81
2023/06/26 15:24:53;;;;;;;5.37;4.87;;;30.90;93.90;;;;;;6174114;23;20213;-81
2023/06/26 15:27:19;;;;;;;6.00;5.50;;;30.80;94.40;;;;;;6149077;23;20186;-81
2023/06/26 15:29:45;;;;;;;5.73;5.13;;;30.90;90.80;;;;;;6175326;23;20421;-81
2023/06/26 15:32:10;;;;;;;5.87;5.20;;;30.90;92.70;;;;;;6150584;23;20527;-81
2023/06/26 15:34:36;;;;;;;5.97;5.37;;;30.90;91.40;;;;;;6174930;23;20147;-81
2023/06/26 15:37:02;;;;;;;5.43;4.97;;;30.90;92.50;;;;;;6147888;23;20255;-81
2023/06/26 15:39:27;;;;;;;5.90;5.30;;;31.00;92.90;;;;;;6175908;23;20473;-81
2023/06/26 15:41:53;;;;;;;6.10;4.97;;;31.00;93.70;;;;;;6175157;23;20710;-81
2023/06/26 15:44:19;;;;;;;5.53;5.03;;;31.00;91.40;;;;;;6148035;23;20154;-81
2023/06/26 15:46:45;;;;;;;7.17;5.50;;;31.00;90.30;;;;;;6175321;23;20257;-81
2023/06/26 15:49:11;;;;;;;5.97;5.20;;;31.00;89.30;;;;;;6147430;23;20487;-81
2023/06/26 15:51:37;;;;;;;6.10;5.53;;;31.00;90.50;;;;;;6143691;23;20190;-82
2023/06/26 15:54:06;;;;;;;5.20;4.80;;;31.00;92.00;;;;;;6118517;23;20401;-81
2023/06/26 15:56:32;;;;;;;6.00;5.50;;;31.00;90.60;;;;;;6119267;23;20421;-81
2023/06/26 15:58:57;;;;;;;5.33;4.63;;;31.00;90.90;;;;;;6119387;23;20436;-81
2023/06/26 16:01:25;;;;;;;6.93;5.57;;;31.00;92.40;;;;;;6119102;23;20617;-82
2023/06/26 16:03:51;;;;;;;5.97;5.47;;;31.00;91.40;;;;;;6117480;23;20167;-82
2023/06/26 16:06:17;;;;;;;5.37;4.93;;;31.00;91.70;;;;;;6147186;23;20494;-81
2023/06/26 16:08:44;;;;;;;6.70;6.10;;;31.00;92.80;;;;;;6147845;23;20163;-81
2023/06/26 16:11:10;;;;;;;6.30;5.70;;;30.90;92.80;;;;;;6120159;23;20222;-81
2023/06/26 16:13:36;;;;;;;7.20;6.50;;;30.90;93.00;;;;;;6143941;23;20404;-81
2023/06/26 16:16:01;;;;;;;7.37;6.67;;;30.90;93.60;;;;;;6142716;23;20171;-81
2023/06/26 16:18:27;;;;;;;6.53;5.93;;;30.90;92.30;;;;;;6116663;23;20572;-81
2023/06/26 16:20:53;;;;;;;7.83;6.13;;;30.90;93.60;;;;;;6115909;23;20435;-81
2023/06/26 16:23:19;;;;;;;5.80;5.30;;;30.90;92.90;;;;;;6142999;23;20191;-81
2023/06/26 16:25:48;;;;;;;6.43;5.90;;;30.90;92.10;;;;;;6143658;23;21032;-82
2023/06/26 16:28:14;;;;;;;5.93;5.43;;;30.90;91.90;;;;;;6118217;23;20171;-81
2023/06/26 16:30:39;;;;;;;7.37;5.60;;;30.90;92.20;;;;;;6118641;23;20408;-81
2023/06/26 16:33:06;;;;;;;6.60;5.80;;;30.80;93.40;;;;;;6119365;23;20432;-81
2023/06/26 16:35:34;;;;;;;7.10;5.83;;;30.80;93.60;;;;;;6119674;23;20592;-81
2023/06/26 16:38:01;;;;;;;6.93;6.23;;;30.80;93.40;;;;;;6120209;23;20479;-81
2023/06/26 16:40:28;;;;;;;8.43;6.10;;;30.80;92.30;;;;;;6146780;23;20381;-81
2023/06/26 16:42:53;;;;;;;8.13;6.60;;;30.80;91.80;;;;;;6120980;23;20405;-81
2023/06/26 16:45:19;;;;;;;7.47;6.43;;;30.70;91.90;;;;;;6120712;23;20476;-81
2023/06/26 16:47:45;;;;;;;7.23;6.63;;;30.70;92.40;;;;;;6120747;23;20335;-81
2023/06/26 16:50:10;;;;;;;7.10;6.40;;;30.70;92.70;;;;;;6119772;23;20158;-81
2023/06/26 16:52:36;;;;;;;8.80;7.10;;;30.60;92.90;;;;;;6146492;23;20199;-81
2023/06/26 16:55:02;;;;;;;10.10;6.77;;;30.60;93.60;;;;;;6119642;23;20229;-81
2023/06/26 16:57:28;;;;;;;7.60;6.40;;;30.60;93.80;;;;;;6122268;23;20190;-81
2023/06/26 16:59:53;;;;;;;6.83;6.23;;;30.60;93.60;;;;;;6147612;23;20226;-81
2023/06/26 17:02:19;;;;;;;9.23;7.73;;;30.50;93.50;;;;;;6121835;23;20213;-82
2023/06/26 17:04:45;;;;;;;7.03;6.30;;;30.50;94.10;;;;;;6147180;23;20491;-81
2023/06/26 17:07:10;;;;;;;6.97;6.23;;;30.50;94.00;;;;;;6147787;23;20183;-80
2023/06/26 17:09:36;;;;;;;7.73;7.03;;;30.40;94.00;;;;;;6121498;23;20172;-81
2023/06/26 17:12:02;;;;;;;6.33;5.83;;;30.40;93.60;;;;;;6147390;23;20190;-81
2023/06/26 17:14:27;;;;;;;8.50;7.10;;;30.40;93.20;;;;;;6147185;23;20512;-81
2023/06/26 17:16:53;;;;;;;7.60;6.90;;;30.40;93.40;;;;;;6148232;23;20357;-81
2023/06/26 17:19:19;;;;;;;9.00;7.17;;;30.30;93.50;;;;;;6147741;23;20660;-80
2023/06/26 17:21:47;;;;;;;7.50;6.90;;;30.30;94.00;;;;;;6122313;23;20186;-81
2023/06/26 17:24:13;;;;;;;9.33;6.80;;;30.30;93.70;;;;;;6120915;23;20463;-81
2023/06/26 17:26:43;;;;;;;8.50;7.70;;;30.30;93.70;;;;;;6122395;23;20992;-81
2023/06/26 17:29:09;;;;;;;7.93;7.23;;;30.20;93.70;;;;;;6148993;23;20398;-81
2023/06/26 17:31:34;;;;;;;11.53;7.47;;;30.20;93.70;;;;;;6123289;23;20783;-82
2023/06/26 17:34:00;;;;;;;12.13;7.40;;;30.20;93.70;;;;;;6148713;23;20163;-81
2023/06/26 17:36:25;;;;;;;7.63;6.93;;;30.20;93.80;;;;;;6122514;23;20205;-82
2023/06/26 17:38:53;;;;;;;9.10;8.20;;;30.10;93.90;;;;;;6120754;23;20656;-81
2023/06/26 17:41:19;;;;;;;8.63;7.77;;;30.10;93.90;;;;;;6146532;23;20359;-81
2023/06/26 17:43:44;;;;;;;9.97;7.67;;;30.10;94.10;;;;;;6146579;23;20406;-81
2023/06/26 17:46:10;;;;;;;8.27;7.00;;;30.00;94.10;;;;;;6120994;23;20415;-81
2023/06/26 17:48:36;;;;;;;8.37;7.57;;;30.00;94.10;;;;;;6120912;23;20489;-81
2023/06/26 17:51:02;;;;;;;8.57;7.67;;;30.00;94.30;;;;;;6146846;23;20196;-81
2023/06/26 17:53:28;;;;;;;7.73;7.03;;;29.90;94.40;;;;;;6121742;23;20177;-82
2023/06/26 17:55:54;;;;;;;8.10;7.30;;;29.90;94.50;;;;;;6121920;23;20402;-81
2023/06/26 17:58:19;;;;;;;8.87;7.97;;;29.90;94.60;;;;;;6123397;23;20423;-81
2023/06/26 18:00:45;;;;;;;13.00;8.33;;;29.80;94.60;;;;;;6148647;23;20593;-81
2023/06/26 18:03:11;;;;;;;8.60;7.60;;;29.80;94.90;;;;;;6123505;23;20174;-81
2023/06/26 18:05:36;;;;;;;9.03;8.17;;;29.70;95.10;;;;;;6122842;23;20160;-81